sensor_id;sensor_type;location;lat;lon;timestamp;temperature;humidity
1546;DHT22;766;51.502;9.752;2023-04-25T00:01:37;5.50;99.90
1546;DHT22;766;51.502;9.752;2023-04-25T00:04:06;5.60;99.90
1546;DHT22;766;51.502;9.752;2023-04-25T00:06:35;5.50;99.90
1546;DHT22;766;51.502;9.752;2023-04-25T00:09:05;5.50;99.90
1546;DHT22;766;51.502;9.752;2023-04-25T00:11:37;5.40;99.90
1546;DHT22;766;51.502;9.752;2023-04-25T00:14:05;5.50;99.90
1546;DHT22;766;51.502;9.752;2023-04-25T00:16:34;5.50;99.90
1546;DHT22;766;51.502;9.752;2023-04-25T00:19:02;5.40;99.90
1546;DHT22;766;51.502;9.752;2023-04-25T00:21:31;5.30;99.90
1546;DHT22;766;51.502;9.752;2023-04-25T00:24:00;5.30;99.90
1546;DHT22;766;51.502;9.752;2023-04-25T00:26:28;5.20;99.90
1546;DHT22;766;51.502;9.752;2023-04-25T00:28:58;5.30;99.90
1546;DHT22;766;51.502;9.752;2023-04-25T00:31:26;5.30;99.90
1546;DHT22;766;51.502;9.752;2023-04-25T00:33:56;5.40;99.90
1546;DHT22;766;51.502;9.752;2023-04-25T00:36:25;5.50;99.90
1546;DHT22;766;51.502;9.752;2023-04-25T00:38:54;5.50;99.90
1546;DHT22;766;51.502;9.752;2023-04-25T00:41:23;5.50;99.90
1546;DHT22;766;51.502;9.752;2023-04-25T00:43:52;5.50;99.90
1546;DHT22;766;51.502;9.752;2023-04-25T00:46:23;5.40;99.90
1546;DHT22;766;51.502;9.752;2023-04-25T00:48:51;5.50;99.90
1546;DHT22;766;51.502;9.752;2023-04-25T00:51:21;5.30;99.90
1546;DHT22;766;51.502;9.752;2023-04-25T00:53:49;5.40;99.90
1546;DHT22;766;51.502;9.752;2023-04-25T00:56:19;5.30;99.90
1546;DHT22;766;51.502;9.752;2023-04-25T00:58:48;5.40;99.90
1546;DHT22;766;51.502;9.752;2023-04-25T01:01:17;5.40;99.90
1546;DHT22;766;51.502;9.752;2023-04-25T01:03:53;5.30;99.90
1546;DHT22;766;51.502;9.752;2023-04-25T01:06:23;5.20;99.90
1546;DHT22;766;51.502;9.752;2023-04-25T01:08:51;5.10;99.90
1546;DHT22;766;51.502;9.752;2023-04-25T01:11:20;5.10;99.90
1546;DHT22;766;51.502;9.752;2023-04-25T01:13:48;5.20;99.90
1546;DHT22;766;51.502;9.752;2023-04-25T01:16:18;5.20;99.90
1546;DHT22;766;51.502;9.752;2023-04-25T01:18:52;5.10;99.90
1546;DHT22;766;51.502;9.752;2023-04-25T01:21:22;5.10;99.90
1546;DHT22;766;51.502;9.752;2023-04-25T01:23:54;5.10;99.90
1546;DHT22;766;51.502;9.752;2023-04-25T01:26:22;4.90;99.90
1546;DHT22;766;51.502;9.752;2023-04-25T01:28:51;4.90;99.90
1546;DHT22;766;51.502;9.752;2023-04-25T01:31:23;4.80;99.90
1546;DHT22;766;51.502;9.752;2023-04-25T01:33:52;4.90;99.90
1546;DHT22;766;51.502;9.752;2023-04-25T01:36:23;4.80;99.90
1546;DHT22;766;51.502;9.752;2023-04-25T01:38:52;4.80;99.90
1546;DHT22;766;51.502;9.752;2023-04-25T01:41:20;4.80;99.90
1546;DHT22;766;51.502;9.752;2023-04-25T01:43:50;4.90;99.90
1546;DHT22;766;51.502;9.752;2023-04-25T01:46:19;4.90;99.90
1546;DHT22;766;51.502;9.752;2023-04-25T01:48:48;5.00;99.90
1546;DHT22;766;51.502;9.752;2023-04-25T01:51:19;5.00;99.90
1546;DHT22;766;51.502;9.752;2023-04-25T01:53:49;4.90;99.90
1546;DHT22;766;51.502;9.752;2023-04-25T01:56:18;4.80;99.90
1546;DHT22;766;51.502;9.752;2023-04-25T01:58:49;4.90;99.90
1546;DHT22;766;51.502;9.752;2023-04-25T02:01:19;4.70;99.90
1546;DHT22;766;51.502;9.752;2023-04-25T02:03:47;4.80;99.90
1546;DHT22;766;51.502;9.752;2023-04-25T02:06:18;4.80;99.90
1546;DHT22;766;51.502;9.752;2023-04-25T02:08:46;4.70;99.90
1546;DHT22;766;51.502;9.752;2023-04-25T02:11:16;4.60;99.90
1546;DHT22;766;51.502;9.752;2023-04-25T02:13:45;4.50;99.90
1546;DHT22;766;51.502;9.752;2023-04-25T02:16:13;4.50;99.90
1546;DHT22;766;51.502;9.752;2023-04-25T02:18:42;4.50;99.90
1546;DHT22;766;51.502;9.752;2023-04-25T02:21:12;4.50;99.90
1546;DHT22;766;51.502;9.752;2023-04-25T02:23:40;4.50;99.90
1546;DHT22;766;51.502;9.752;2023-04-25T02:26:08;4.40;99.90
1546;DHT22;766;51.502;9.752;2023-04-25T02:28:39;4.40;99.90
1546;DHT22;766;51.502;9.752;2023-04-25T02:31:07;4.50;99.90
1546;DHT22;766;51.502;9.752;2023-04-25T02:33:36;4.50;99.90
1546;DHT22;766;51.502;9.752;2023-04-25T02:36:05;4.50;99.90
1546;DHT22;766;51.502;9.752;2023-04-25T02:38:33;4.40;99.90
1546;DHT22;766;51.502;9.752;2023-04-25T02:41:02;4.40;99.90
1546;DHT22;766;51.502;9.752;2023-04-25T02:43:30;4.40;99.90
1546;DHT22;766;51.502;9.752;2023-04-25T02:46:00;4.40;99.90
1546;DHT22;766;51.502;9.752;2023-04-25T02:48:28;4.40;99.90
1546;DHT22;766;51.502;9.752;2023-04-25T02:50:57;4.50;99.90
1546;DHT22;766;51.502;9.752;2023-04-25T02:53:25;4.60;99.90
1546;DHT22;766;51.502;9.752;2023-04-25T02:55:54;4.60;99.90
1546;DHT22;766;51.502;9.752;2023-04-25T02:58:25;4.60;99.90
1546;DHT22;766;51.502;9.752;2023-04-25T03:00:54;4.70;99.90
1546;DHT22;766;51.502;9.752;2023-04-25T03:03:24;4.60;99.90
1546;DHT22;766;51.502;9.752;2023-04-25T03:05:53;4.70;99.90
1546;DHT22;766;51.502;9.752;2023-04-25T03:08:21;4.70;99.90
1546;DHT22;766;51.502;9.752;2023-04-25T03:10:49;4.70;99.90
1546;DHT22;766;51.502;9.752;2023-04-25T03:13:19;4.80;99.90
1546;DHT22;766;51.502;9.752;2023-04-25T03:15:47;4.80;99.90
1546;DHT22;766;51.502;9.752;2023-04-25T03:18:16;4.90;99.90
1546;DHT22;766;51.502;9.752;2023-04-25T03:20:46;4.90;99.90
1546;DHT22;766;51.502;9.752;2023-04-25T03:23:14;5.00;99.90
1546;DHT22;766;51.502;9.752;2023-04-25T03:25:43;4.90;99.90
1546;DHT22;766;51.502;9.752;2023-04-25T03:28:11;5.10;99.90
1546;DHT22;766;51.502;9.752;2023-04-25T03:30:42;5.00;99.90
1546;DHT22;766;51.502;9.752;2023-04-25T03:33:11;5.10;99.90
1546;DHT22;766;51.502;9.752;2023-04-25T03:35:39;5.00;99.90
1546;DHT22;766;51.502;9.752;2023-04-25T03:38:09;5.00;99.90
1546;DHT22;766;51.502;9.752;2023-04-25T03:40:37;5.10;99.90
1546;DHT22;766;51.502;9.752;2023-04-25T03:43:05;5.10;99.90
1546;DHT22;766;51.502;9.752;2023-04-25T03:45:34;5.10;99.90
1546;DHT22;766;51.502;9.752;2023-04-25T03:48:03;5.20;99.90
1546;DHT22;766;51.502;9.752;2023-04-25T03:50:31;5.10;99.90
1546;DHT22;766;51.502;9.752;2023-04-25T03:53:00;5.20;99.90
1546;DHT22;766;51.502;9.752;2023-04-25T03:55:30;5.20;99.90
1546;DHT22;766;51.502;9.752;2023-04-25T03:57:58;5.20;99.90
1546;DHT22;766;51.502;9.752;2023-04-25T04:00:27;5.10;99.90
1546;DHT22;766;51.502;9.752;2023-04-25T04:02:55;5.10;99.90
1546;DHT22;766;51.502;9.752;2023-04-25T04:05:23;5.10;99.90
1546;DHT22;766;51.502;9.752;2023-04-25T04:07:52;5.10;99.90
1546;DHT22;766;51.502;9.752;2023-04-25T04:10:21;5.10;99.90
1546;DHT22;766;51.502;9.752;2023-04-25T04:12:51;5.00;99.90
1546;DHT22;766;51.502;9.752;2023-04-25T04:15:19;5.10;99.90
1546;DHT22;766;51.502;9.752;2023-04-25T04:17:48;5.10;99.90
1546;DHT22;766;51.502;9.752;2023-04-25T04:20:16;5.10;99.90
1546;DHT22;766;51.502;9.752;2023-04-25T04:22:45;5.10;99.90
1546;DHT22;766;51.502;9.752;2023-04-25T04:25:14;5.20;99.90
1546;DHT22;766;51.502;9.752;2023-04-25T04:27:42;5.10;99.90
1546;DHT22;766;51.502;9.752;2023-04-25T04:30:13;5.10;99.90
1546;DHT22;766;51.502;9.752;2023-04-25T04:32:41;5.20;99.90
1546;DHT22;766;51.502;9.752;2023-04-25T04:35:13;5.20;99.90
1546;DHT22;766;51.502;9.752;2023-04-25T04:38:04;5.10;99.90
1546;DHT22;766;51.502;9.752;2023-04-25T04:40:33;5.20;99.90
1546;DHT22;766;51.502;9.752;2023-04-25T04:43:05;5.10;99.90
1546;DHT22;766;51.502;9.752;2023-04-25T04:45:38;5.10;99.90
1546;DHT22;766;51.502;9.752;2023-04-25T04:48:08;5.10;99.90
1546;DHT22;766;51.502;9.752;2023-04-25T04:50:44;5.10;99.90
1546;DHT22;766;51.502;9.752;2023-04-25T04:53:28;5.10;99.90
1546;DHT22;766;51.502;9.752;2023-04-25T04:56:03;5.10;99.90
1546;DHT22;766;51.502;9.752;2023-04-25T04:58:34;5.10;99.90
1546;DHT22;766;51.502;9.752;2023-04-25T05:01:09;5.00;99.90
1546;DHT22;766;51.502;9.752;2023-04-25T05:03:39;5.10;99.90
1546;DHT22;766;51.502;9.752;2023-04-25T05:06:09;5.10;99.90
1546;DHT22;766;51.502;9.752;2023-04-25T05:08:39;5.10;99.90
1546;DHT22;766;51.502;9.752;2023-04-25T05:11:18;5.10;99.90
1546;DHT22;766;51.502;9.752;2023-04-25T05:13:52;5.10;99.90
1546;DHT22;766;51.502;9.752;2023-04-25T05:16:22;5.10;99.90
1546;DHT22;766;51.502;9.752;2023-04-25T05:18:51;5.20;99.90
1546;DHT22;766;51.502;9.752;2023-04-25T05:21:19;5.20;99.90
1546;DHT22;766;51.502;9.752;2023-04-25T05:23:47;5.20;99.90
1546;DHT22;766;51.502;9.752;2023-04-25T05:26:16;5.20;99.90
1546;DHT22;766;51.502;9.752;2023-04-25T05:28:45;5.20;99.90
1546;DHT22;766;51.502;9.752;2023-04-25T05:31:14;5.10;99.90
1546;DHT22;766;51.502;9.752;2023-04-25T05:33:43;5.10;99.90
1546;DHT22;766;51.502;9.752;2023-04-25T05:36:12;5.10;99.90
1546;DHT22;766;51.502;9.752;2023-04-25T05:38:40;5.20;99.90
1546;DHT22;766;51.502;9.752;2023-04-25T05:41:09;5.30;99.90
1546;DHT22;766;51.502;9.752;2023-04-25T05:43:37;5.40;99.90
1546;DHT22;766;51.502;9.752;2023-04-25T05:46:05;5.40;99.90
1546;DHT22;766;51.502;9.752;2023-04-25T05:48:34;5.40;99.90
1546;DHT22;766;51.502;9.752;2023-04-25T05:51:04;5.30;99.90
1546;DHT22;766;51.502;9.752;2023-04-25T05:53:32;5.40;99.90
1546;DHT22;766;51.502;9.752;2023-04-25T05:56:01;5.30;99.90
1546;DHT22;766;51.502;9.752;2023-04-25T05:58:29;5.20;99.90
1546;DHT22;766;51.502;9.752;2023-04-25T06:00:58;5.30;99.90
1546;DHT22;766;51.502;9.752;2023-04-25T06:03:26;5.20;99.90
1546;DHT22;766;51.502;9.752;2023-04-25T06:05:55;5.20;99.90
1546;DHT22;766;51.502;9.752;2023-04-25T06:08:25;5.30;99.90
1546;DHT22;766;51.502;9.752;2023-04-25T06:10:53;5.20;99.90
1546;DHT22;766;51.502;9.752;2023-04-25T06:13:21;5.30;99.90
1546;DHT22;766;51.502;9.752;2023-04-25T06:15:49;5.30;99.90
1546;DHT22;766;51.502;9.752;2023-04-25T06:18:18;5.40;99.90
1546;DHT22;766;51.502;9.752;2023-04-25T06:20:47;5.50;99.90
1546;DHT22;766;51.502;9.752;2023-04-25T06:23:16;5.70;99.90
1546;DHT22;766;51.502;9.752;2023-04-25T06:25:46;5.60;99.90
1546;DHT22;766;51.502;9.752;2023-04-25T06:28:14;5.60;99.90
1546;DHT22;766;51.502;9.752;2023-04-25T06:30:43;5.60;99.90
1546;DHT22;766;51.502;9.752;2023-04-25T06:33:12;5.60;99.90
1546;DHT22;766;51.502;9.752;2023-04-25T06:35:41;5.80;99.90
1546;DHT22;766;51.502;9.752;2023-04-25T06:38:09;5.90;99.90
1546;DHT22;766;51.502;9.752;2023-04-25T06:40:38;5.90;99.90
1546;DHT22;766;51.502;9.752;2023-04-25T06:43:08;5.80;99.90
1546;DHT22;766;51.502;9.752;2023-04-25T06:45:37;5.90;99.90
1546;DHT22;766;51.502;9.752;2023-04-25T06:48:05;6.00;99.90
1546;DHT22;766;51.502;9.752;2023-04-25T06:50:34;6.10;99.90
1546;DHT22;766;51.502;9.752;2023-04-25T06:53:02;6.10;99.90
1546;DHT22;766;51.502;9.752;2023-04-25T06:55:33;6.00;99.90
1546;DHT22;766;51.502;9.752;2023-04-25T06:58:12;6.10;99.90
1546;DHT22;766;51.502;9.752;2023-04-25T07:00:40;6.10;99.90
1546;DHT22;766;51.502;9.752;2023-04-25T07:03:09;6.10;99.90
1546;DHT22;766;51.502;9.752;2023-04-25T07:05:38;6.20;99.90
1546;DHT22;766;51.502;9.752;2023-04-25T07:08:06;6.50;99.90
1546;DHT22;766;51.502;9.752;2023-04-25T07:10:35;6.70;99.90
1546;DHT22;766;51.502;9.752;2023-04-25T07:13:04;7.00;99.90
1546;DHT22;766;51.502;9.752;2023-04-25T07:15:34;7.10;99.90
1546;DHT22;766;51.502;9.752;2023-04-25T07:18:02;7.30;99.90
1546;DHT22;766;51.502;9.752;2023-04-25T07:20:31;7.40;99.90
1546;DHT22;766;51.502;9.752;2023-04-25T07:22:59;7.30;99.90
1546;DHT22;766;51.502;9.752;2023-04-25T07:25:29;7.20;99.90
1546;DHT22;766;51.502;9.752;2023-04-25T07:27:57;6.70;99.90
1546;DHT22;766;51.502;9.752;2023-04-25T07:30:26;6.50;99.90
1546;DHT22;766;51.502;9.752;2023-04-25T07:32:56;6.50;99.90
1546;DHT22;766;51.502;9.752;2023-04-25T07:35:26;6.70;99.90
1546;DHT22;766;51.502;9.752;2023-04-25T07:37:55;6.60;99.90
1546;DHT22;766;51.502;9.752;2023-04-25T07:40:23;6.50;99.90
1546;DHT22;766;51.502;9.752;2023-04-25T07:42:51;6.40;99.90
1546;DHT22;766;51.502;9.752;2023-04-25T07:45:20;6.50;99.90
1546;DHT22;766;51.502;9.752;2023-04-25T07:47:48;6.80;99.90
1546;DHT22;766;51.502;9.752;2023-04-25T07:50:18;7.30;99.90
1546;DHT22;766;51.502;9.752;2023-04-25T07:52:47;7.80;99.90
1546;DHT22;766;51.502;9.752;2023-04-25T07:55:15;8.40;99.90
1546;DHT22;766;51.502;9.752;2023-04-25T07:57:44;8.40;99.90
1546;DHT22;766;51.502;9.752;2023-04-25T08:00:15;8.30;99.90
1546;DHT22;766;51.502;9.752;2023-04-25T08:02:44;8.00;99.90
1546;DHT22;766;51.502;9.752;2023-04-25T08:05:12;7.90;99.90
1546;DHT22;766;51.502;9.752;2023-04-25T08:07:45;8.00;99.90
1546;DHT22;766;51.502;9.752;2023-04-25T08:10:13;8.10;99.90
1546;DHT22;766;51.502;9.752;2023-04-25T08:12:42;8.10;99.90
1546;DHT22;766;51.502;9.752;2023-04-25T08:15:10;8.50;99.90
1546;DHT22;766;51.502;9.752;2023-04-25T08:17:43;8.90;99.90
1546;DHT22;766;51.502;9.752;2023-04-25T08:20:12;8.90;99.90
1546;DHT22;766;51.502;9.752;2023-04-25T08:22:40;8.90;99.90
1546;DHT22;766;51.502;9.752;2023-04-25T08:25:10;9.00;99.90
1546;DHT22;766;51.502;9.752;2023-04-25T08:27:39;9.10;99.90
1546;DHT22;766;51.502;9.752;2023-04-25T08:30:08;8.90;99.90
1546;DHT22;766;51.502;9.752;2023-04-25T08:32:39;8.90;99.90
1546;DHT22;766;51.502;9.752;2023-04-25T08:35:13;8.80;99.90
1546;DHT22;766;51.502;9.752;2023-04-25T08:37:43;8.70;99.90
1546;DHT22;766;51.502;9.752;2023-04-25T08:40:14;8.30;99.90
1546;DHT22;766;51.502;9.752;2023-04-25T08:42:43;8.20;99.90
1546;DHT22;766;51.502;9.752;2023-04-25T08:45:12;8.60;99.90
1546;DHT22;766;51.502;9.752;2023-04-25T08:47:41;8.80;99.90
1546;DHT22;766;51.502;9.752;2023-04-25T08:50:11;8.90;99.90
1546;DHT22;766;51.502;9.752;2023-04-25T08:52:44;9.70;99.90
1546;DHT22;766;51.502;9.752;2023-04-25T08:55:17;10.60;99.90
1546;DHT22;766;51.502;9.752;2023-04-25T08:57:47;10.40;99.90
1546;DHT22;766;51.502;9.752;2023-04-25T09:00:16;10.00;99.90
1546;DHT22;766;51.502;9.752;2023-04-25T09:02:45;9.50;99.90
1546;DHT22;766;51.502;9.752;2023-04-25T09:05:15;8.90;99.90
1546;DHT22;766;51.502;9.752;2023-04-25T09:08:04;8.80;99.90
1546;DHT22;766;51.502;9.752;2023-04-25T09:10:34;8.30;99.90
1546;DHT22;766;51.502;9.752;2023-04-25T09:13:04;8.00;99.90
1546;DHT22;766;51.502;9.752;2023-04-25T09:15:33;7.80;99.90
1546;DHT22;766;51.502;9.752;2023-04-25T09:18:06;7.60;99.90
1546;DHT22;766;51.502;9.752;2023-04-25T09:20:41;7.40;99.90
1546;DHT22;766;51.502;9.752;2023-04-25T09:23:26;7.60;99.90
1546;DHT22;766;51.502;9.752;2023-04-25T09:25:56;8.00;99.90
1546;DHT22;766;51.502;9.752;2023-04-25T09:28:27;8.50;99.90
1546;DHT22;766;51.502;9.752;2023-04-25T09:30:57;9.10;99.90
1546;DHT22;766;51.502;9.752;2023-04-25T09:33:30;9.30;99.90
1546;DHT22;766;51.502;9.752;2023-04-25T09:36:03;9.10;99.90
1546;DHT22;766;51.502;9.752;2023-04-25T09:38:32;8.50;99.90
1546;DHT22;766;51.502;9.752;2023-04-25T09:41:10;7.80;99.90
1546;DHT22;766;51.502;9.752;2023-04-25T09:43:39;7.70;99.90
1546;DHT22;766;51.502;9.752;2023-04-25T09:46:09;7.70;99.90
1546;DHT22;766;51.502;9.752;2023-04-25T09:48:38;7.50;99.90
1546;DHT22;766;51.502;9.752;2023-04-25T09:51:12;7.30;99.90
1546;DHT22;766;51.502;9.752;2023-04-25T09:53:43;7.20;99.90
1546;DHT22;766;51.502;9.752;2023-04-25T09:56:14;7.30;99.90
1546;DHT22;766;51.502;9.752;2023-04-25T09:58:43;7.70;99.90
1546;DHT22;766;51.502;9.752;2023-04-25T10:01:11;8.10;99.90
1546;DHT22;766;51.502;9.752;2023-04-25T10:03:41;8.80;99.90
1546;DHT22;766;51.502;9.752;2023-04-25T10:06:13;8.90;99.90
1546;DHT22;766;51.502;9.752;2023-04-25T10:08:43;9.20;99.90
1546;DHT22;766;51.502;9.752;2023-04-25T10:11:14;9.30;99.90
1546;DHT22;766;51.502;9.752;2023-04-25T10:13:44;9.10;99.90
1546;DHT22;766;51.502;9.752;2023-04-25T10:16:15;9.40;99.90
1546;DHT22;766;51.502;9.752;2023-04-25T10:18:44;9.50;99.90
1546;DHT22;766;51.502;9.752;2023-04-25T10:21:13;9.50;99.90
1546;DHT22;766;51.502;9.752;2023-04-25T10:23:46;9.40;99.90
1546;DHT22;766;51.502;9.752;2023-04-25T10:26:17;9.20;99.90
1546;DHT22;766;51.502;9.752;2023-04-25T10:28:56;8.90;99.90
1546;DHT22;766;51.502;9.752;2023-04-25T10:31:25;8.70;99.90
1546;DHT22;766;51.502;9.752;2023-04-25T10:33:54;8.80;99.90
1546;DHT22;766;51.502;9.752;2023-04-25T10:36:23;8.70;99.90
1546;DHT22;766;51.502;9.752;2023-04-25T10:38:52;8.70;99.90
1546;DHT22;766;51.502;9.752;2023-04-25T10:41:22;8.90;99.90
1546;DHT22;766;51.502;9.752;2023-04-25T10:43:59;8.70;99.90
1546;DHT22;766;51.502;9.752;2023-04-25T10:46:29;8.70;99.90
1546;DHT22;766;51.502;9.752;2023-04-25T10:48:59;8.60;99.90
1546;DHT22;766;51.502;9.752;2023-04-25T10:51:33;8.50;99.90
1546;DHT22;766;51.502;9.752;2023-04-25T10:54:22;8.20;99.90
1546;DHT22;766;51.502;9.752;2023-04-25T10:56:54;8.30;99.90
1546;DHT22;766;51.502;9.752;2023-04-25T10:59:25;8.40;99.90
1546;DHT22;766;51.502;9.752;2023-04-25T11:01:54;8.50;99.90
1546;DHT22;766;51.502;9.752;2023-04-25T11:04:24;8.60;99.90
1546;DHT22;766;51.502;9.752;2023-04-25T11:07:07;8.50;99.90
1546;DHT22;766;51.502;9.752;2023-04-25T11:09:39;8.70;99.90
1546;DHT22;766;51.502;9.752;2023-04-25T11:12:10;8.90;99.90
1546;DHT22;766;51.502;9.752;2023-04-25T11:14:40;9.00;99.90
1546;DHT22;766;51.502;9.752;2023-04-25T11:17:08;8.80;99.90
1546;DHT22;766;51.502;9.752;2023-04-25T11:19:37;8.90;99.90
1546;DHT22;766;51.502;9.752;2023-04-25T11:22:06;8.80;99.90
1546;DHT22;766;51.502;9.752;2023-04-25T11:24:35;8.70;99.90
1546;DHT22;766;51.502;9.752;2023-04-25T11:27:04;8.40;99.90
1546;DHT22;766;51.502;9.752;2023-04-25T11:29:35;8.40;99.90
1546;DHT22;766;51.502;9.752;2023-04-25T11:32:04;8.70;99.90
1546;DHT22;766;51.502;9.752;2023-04-25T11:34:33;9.10;99.90
1546;DHT22;766;51.502;9.752;2023-04-25T11:37:02;9.60;99.90
1546;DHT22;766;51.502;9.752;2023-04-25T11:39:30;9.70;99.90
1546;DHT22;766;51.502;9.752;2023-04-25T11:41:59;9.60;99.90
1546;DHT22;766;51.502;9.752;2023-04-25T11:44:30;9.20;99.90
1546;DHT22;766;51.502;9.752;2023-04-25T11:46:59;9.30;99.90
1546;DHT22;766;51.502;9.752;2023-04-25T11:49:31;9.40;99.90
1546;DHT22;766;51.502;9.752;2023-04-25T11:52:00;11.10;99.90
1546;DHT22;766;51.502;9.752;2023-04-25T11:54:29;12.70;99.90
1546;DHT22;766;51.502;9.752;2023-04-25T11:56:58;12.40;99.90
1546;DHT22;766;51.502;9.752;2023-04-25T11:59:27;11.40;99.90
1546;DHT22;766;51.502;9.752;2023-04-25T12:01:55;11.00;99.90
1546;DHT22;766;51.502;9.752;2023-04-25T12:04:26;10.40;99.90
1546;DHT22;766;51.502;9.752;2023-04-25T12:06:55;10.30;99.90
1546;DHT22;766;51.502;9.752;2023-04-25T12:09:29;10.60;99.90
1546;DHT22;766;51.502;9.752;2023-04-25T12:12:01;11.00;99.90
1546;DHT22;766;51.502;9.752;2023-04-25T12:14:33;11.00;99.90
1546;DHT22;766;51.502;9.752;2023-04-25T12:17:08;11.30;99.90
1546;DHT22;766;51.502;9.752;2023-04-25T12:19:41;11.20;99.90
1546;DHT22;766;51.502;9.752;2023-04-25T12:22:22;11.00;99.90
1546;DHT22;766;51.502;9.752;2023-04-25T12:24:51;10.80;99.90
1546;DHT22;766;51.502;9.752;2023-04-25T12:27:20;10.60;99.90
1546;DHT22;766;51.502;9.752;2023-04-25T12:29:52;10.30;99.90
1546;DHT22;766;51.502;9.752;2023-04-25T12:32:21;10.30;99.90
1546;DHT22;766;51.502;9.752;2023-04-25T12:34:50;10.20;99.90
1546;DHT22;766;51.502;9.752;2023-04-25T12:37:19;10.10;99.90
1546;DHT22;766;51.502;9.752;2023-04-25T12:39:48;9.90;99.90
1546;DHT22;766;51.502;9.752;2023-04-25T12:42:27;10.00;99.90
1546;DHT22;766;51.502;9.752;2023-04-25T12:45:06;9.90;99.90
1546;DHT22;766;51.502;9.752;2023-04-25T12:47:35;10.20;99.90
1546;DHT22;766;51.502;9.752;2023-04-25T12:50:06;10.10;99.90
1546;DHT22;766;51.502;9.752;2023-04-25T12:52:38;10.20;99.90
1546;DHT22;766;51.502;9.752;2023-04-25T12:55:07;10.40;99.90
1546;DHT22;766;51.502;9.752;2023-04-25T12:57:36;10.50;99.90
1546;DHT22;766;51.502;9.752;2023-04-25T13:00:08;10.50;99.90
1546;DHT22;766;51.502;9.752;2023-04-25T13:02:37;10.70;99.90
1546;DHT22;766;51.502;9.752;2023-04-25T13:05:08;10.40;99.90
1546;DHT22;766;51.502;9.752;2023-04-25T13:07:38;10.40;99.90
1546;DHT22;766;51.502;9.752;2023-04-25T13:10:07;10.50;99.90
1546;DHT22;766;51.502;9.752;2023-04-25T13:12:36;10.20;99.90
1546;DHT22;766;51.502;9.752;2023-04-25T13:15:05;10.20;99.90
1546;DHT22;766;51.502;9.752;2023-04-25T13:17:36;10.10;99.90
1546;DHT22;766;51.502;9.752;2023-04-25T13:20:08;10.00;99.90
1546;DHT22;766;51.502;9.752;2023-04-25T13:22:40;10.30;99.90
1546;DHT22;766;51.502;9.752;2023-04-25T13:25:09;10.60;99.90
1546;DHT22;766;51.502;9.752;2023-04-25T13:27:38;10.90;99.90
1546;DHT22;766;51.502;9.752;2023-04-25T13:30:08;10.80;99.90
1546;DHT22;766;51.502;9.752;2023-04-25T13:32:37;10.90;99.90
1546;DHT22;766;51.502;9.752;2023-04-25T13:35:08;10.60;99.90
1546;DHT22;766;51.502;9.752;2023-04-25T13:37:37;10.30;99.90
1546;DHT22;766;51.502;9.752;2023-04-25T13:40:08;10.20;99.90
1546;DHT22;766;51.502;9.752;2023-04-25T13:42:38;10.20;99.90
1546;DHT22;766;51.502;9.752;2023-04-25T13:45:10;9.80;99.90
1546;DHT22;766;51.502;9.752;2023-04-25T13:47:38;9.70;99.90
1546;DHT22;766;51.502;9.752;2023-04-25T13:50:09;9.60;99.90
1546;DHT22;766;51.502;9.752;2023-04-25T13:52:37;9.30;99.90
1546;DHT22;766;51.502;9.752;2023-04-25T13:55:06;9.30;99.90
1546;DHT22;766;51.502;9.752;2023-04-25T13:57:35;9.40;99.90
1546;DHT22;766;51.502;9.752;2023-04-25T14:00:08;9.20;99.90
1546;DHT22;766;51.502;9.752;2023-04-25T14:02:37;9.30;99.90
1546;DHT22;766;51.502;9.752;2023-04-25T14:05:07;9.50;99.90
1546;DHT22;766;51.502;9.752;2023-04-25T14:07:36;9.70;99.90
1546;DHT22;766;51.502;9.752;2023-04-25T14:10:06;9.90;99.90
1546;DHT22;766;51.502;9.752;2023-04-25T14:12:35;9.90;99.90
1546;DHT22;766;51.502;9.752;2023-04-25T14:15:04;10.00;99.90
1546;DHT22;766;51.502;9.752;2023-04-25T14:17:32;10.10;99.90
1546;DHT22;766;51.502;9.752;2023-04-25T14:20:01;9.80;99.90
1546;DHT22;766;51.502;9.752;2023-04-25T14:22:46;9.60;99.90
1546;DHT22;766;51.502;9.752;2023-04-25T14:25:15;9.20;99.90
1546;DHT22;766;51.502;9.752;2023-04-25T14:27:43;8.80;99.90
1546;DHT22;766;51.502;9.752;2023-04-25T14:30:17;8.70;99.90
1546;DHT22;766;51.502;9.752;2023-04-25T14:32:46;8.70;99.90
1546;DHT22;766;51.502;9.752;2023-04-25T14:35:14;8.90;99.90
1546;DHT22;766;51.502;9.752;2023-04-25T14:37:44;8.60;99.90
1546;DHT22;766;51.502;9.752;2023-04-25T14:40:13;9.00;99.90
1546;DHT22;766;51.502;9.752;2023-04-25T14:42:43;9.30;99.90
1546;DHT22;766;51.502;9.752;2023-04-25T14:45:11;9.00;99.90
1546;DHT22;766;51.502;9.752;2023-04-25T14:47:39;9.10;99.90
1546;DHT22;766;51.502;9.752;2023-04-25T14:50:09;9.10;99.90
1546;DHT22;766;51.502;9.752;2023-04-25T14:52:37;9.00;99.90
1546;DHT22;766;51.502;9.752;2023-04-25T14:55:08;9.00;99.90
1546;DHT22;766;51.502;9.752;2023-04-25T14:57:36;9.20;99.90
1546;DHT22;766;51.502;9.752;2023-04-25T15:00:07;9.30;99.90
1546;DHT22;766;51.502;9.752;2023-04-25T15:02:36;9.40;99.90
1546;DHT22;766;51.502;9.752;2023-04-25T15:05:06;9.30;99.90
1546;DHT22;766;51.502;9.752;2023-04-25T15:07:35;9.30;99.90
1546;DHT22;766;51.502;9.752;2023-04-25T15:10:04;9.50;99.90
1546;DHT22;766;51.502;9.752;2023-04-25T15:12:39;9.40;99.90
1546;DHT22;766;51.502;9.752;2023-04-25T15:15:08;9.60;99.90
1546;DHT22;766;51.502;9.752;2023-04-25T15:17:44;9.80;99.90
1546;DHT22;766;51.502;9.752;2023-04-25T15:20:13;9.90;99.90
1546;DHT22;766;51.502;9.752;2023-04-25T15:22:42;10.20;99.90
1546;DHT22;766;51.502;9.752;2023-04-25T15:25:12;10.10;99.90
1546;DHT22;766;51.502;9.752;2023-04-25T15:27:41;10.10;99.90
1546;DHT22;766;51.502;9.752;2023-04-25T15:30:13;10.10;99.90
1546;DHT22;766;51.502;9.752;2023-04-25T15:32:42;9.90;99.90
1546;DHT22;766;51.502;9.752;2023-04-25T15:35:11;9.60;99.90
1546;DHT22;766;51.502;9.752;2023-04-25T15:37:40;9.40;99.90
1546;DHT22;766;51.502;9.752;2023-04-25T15:40:10;9.60;99.90
1546;DHT22;766;51.502;9.752;2023-04-25T15:42:42;9.70;99.90
1546;DHT22;766;51.502;9.752;2023-04-25T15:45:14;9.50;99.90
1546;DHT22;766;51.502;9.752;2023-04-25T15:47:44;9.30;99.90
1546;DHT22;766;51.502;9.752;2023-04-25T15:50:14;9.30;99.90
1546;DHT22;766;51.502;9.752;2023-04-25T15:52:43;9.00;99.90
1546;DHT22;766;51.502;9.752;2023-04-25T15:55:11;8.80;99.90
1546;DHT22;766;51.502;9.752;2023-04-25T15:57:41;8.70;99.90
1546;DHT22;766;51.502;9.752;2023-04-25T16:00:10;8.60;99.90
1546;DHT22;766;51.502;9.752;2023-04-25T16:02:43;8.60;99.90
1546;DHT22;766;51.502;9.752;2023-04-25T16:05:12;8.70;99.90
1546;DHT22;766;51.502;9.752;2023-04-25T16:07:43;8.70;99.90
1546;DHT22;766;51.502;9.752;2023-04-25T16:10:12;8.70;99.90
1546;DHT22;766;51.502;9.752;2023-04-25T16:12:44;8.90;99.90
1546;DHT22;766;51.502;9.752;2023-04-25T16:15:14;8.80;99.90
1546;DHT22;766;51.502;9.752;2023-04-25T16:17:43;8.90;99.90
1546;DHT22;766;51.502;9.752;2023-04-25T16:20:11;8.60;99.90
1546;DHT22;766;51.502;9.752;2023-04-25T16:22:41;8.60;99.90
1546;DHT22;766;51.502;9.752;2023-04-25T16:25:10;8.60;99.90
1546;DHT22;766;51.502;9.752;2023-04-25T16:27:39;8.50;99.90
1546;DHT22;766;51.502;9.752;2023-04-25T16:30:10;8.50;99.90
1546;DHT22;766;51.502;9.752;2023-04-25T16:32:39;8.50;99.90
1546;DHT22;766;51.502;9.752;2023-04-25T16:35:14;8.40;99.90
1546;DHT22;766;51.502;9.752;2023-04-25T16:37:45;8.40;99.90
1546;DHT22;766;51.502;9.752;2023-04-25T16:40:14;8.50;99.90
1546;DHT22;766;51.502;9.752;2023-04-25T16:42:43;8.40;99.90
1546;DHT22;766;51.502;9.752;2023-04-25T16:45:15;8.20;99.90
1546;DHT22;766;51.502;9.752;2023-04-25T16:47:46;8.30;99.90
1546;DHT22;766;51.502;9.752;2023-04-25T16:50:15;8.40;99.90